sensor_id;sensor_type;location;lat;lon;timestamp;temperature;humidity
48912;DHT22;34722;52.108;5.044;2023-04-03T00:00:04;3.40;99.90
48912;DHT22;34722;52.108;5.044;2023-04-03T00:11:58;3.40;94.80
48912;DHT22;34722;52.108;5.044;2023-04-03T00:22:59;3.30;87.20
48912;DHT22;34722;52.108;5.044;2023-04-03T00:25:25;3.30;84.90
48912;DHT22;34722;52.108;5.044;2023-04-03T00:33:02;3.20;67.60
48912;DHT22;34722;52.108;5.044;2023-04-03T00:44:00;3.20;53.40
48912;DHT22;34722;52.108;5.044;2023-04-03T00:46:26;3.30;49.30
48912;DHT22;34722;52.108;5.044;2023-04-03T00:48:51;3.20;48.10
48912;DHT22;34722;52.108;5.044;2023-04-03T00:51:20;3.20;43.90
48912;DHT22;34722;52.108;5.044;2023-04-03T00:53:50;3.20;41.80
48912;DHT22;34722;52.108;5.044;2023-04-03T00:56:18;3.20;40.30
48912;DHT22;34722;52.108;5.044;2023-04-03T00:58:57;3.30;33.30
48912;DHT22;34722;52.108;5.044;2023-04-03T01:01:26;3.20;39.80
48912;DHT22;34722;52.108;5.044;2023-04-03T01:03:52;3.20;44.70
48912;DHT22;34722;52.108;5.044;2023-04-03T01:06:23;3.20;41.40
48912;DHT22;34722;52.108;5.044;2023-04-03T01:08:50;3.10;46.80
48912;DHT22;34722;52.108;5.044;2023-04-03T01:11:16;3.10;55.20
48912;DHT22;34722;52.108;5.044;2023-04-03T01:13:42;3.00;59.80
48912;DHT22;34722;52.108;5.044;2023-04-03T01:16:08;3.00;62.80
48912;DHT22;34722;52.108;5.044;2023-04-03T01:18:36;3.00;66.60
48912;DHT22;34722;52.108;5.044;2023-04-03T01:29:36;2.90;92.10
48912;DHT22;34722;52.108;5.044;2023-04-03T01:32:03;2.80;95.40
48912;DHT22;34722;52.108;5.044;2023-04-03T01:34:30;2.80;98.00
48912;DHT22;34722;52.108;5.044;2023-04-03T01:36:56;2.80;99.90
48912;DHT22;34722;52.108;5.044;2023-04-03T01:39:22;2.70;99.90
48912;DHT22;34722;52.108;5.044;2023-04-03T01:54:44;2.60;99.90
48912;DHT22;34722;52.108;5.044;2023-04-03T02:14:41;2.30;99.90
48912;DHT22;34722;52.108;5.044;2023-04-03T02:17:06;2.30;99.90
48912;DHT22;34722;52.108;5.044;2023-04-03T02:19:34;2.30;99.90
48912;DHT22;34722;52.108;5.044;2023-04-03T02:25:23;2.20;99.90
48912;DHT22;34722;52.108;5.044;2023-04-03T02:27:48;2.10;99.90
48912;DHT22;34722;52.108;5.044;2023-04-03T02:30:14;2.10;99.90
48912;DHT22;34722;52.108;5.044;2023-04-03T02:46:18;2.00;99.90
48912;DHT22;34722;52.108;5.044;2023-04-03T02:48:44;2.00;99.90
48912;DHT22;34722;52.108;5.044;2023-04-03T02:51:10;1.90;99.90
48912;DHT22;34722;52.108;5.044;2023-04-03T02:53:37;1.90;99.90
48912;DHT22;34722;52.108;5.044;2023-04-03T02:56:03;1.90;99.90
48912;DHT22;34722;52.108;5.044;2023-04-03T02:58:29;1.90;99.90
48912;DHT22;34722;52.108;5.044;2023-04-03T03:00:55;1.90;99.90
48912;DHT22;34722;52.108;5.044;2023-04-03T03:12:17;1.80;99.90
48912;DHT22;34722;52.108;5.044;2023-04-03T03:14:48;1.80;99.90
48912;DHT22;34722;52.108;5.044;2023-04-03T03:17:14;1.70;99.90
48912;DHT22;34722;52.108;5.044;2023-04-03T03:19:40;1.70;99.90
48912;DHT22;34722;52.108;5.044;2023-04-03T03:22:05;1.70;99.90
48912;DHT22;34722;52.108;5.044;2023-04-03T03:24:31;1.60;99.90
48912;DHT22;34722;52.108;5.044;2023-04-03T03:26:57;1.60;99.90
48912;DHT22;34722;52.108;5.044;2023-04-03T03:29:23;1.60;99.90
48912;DHT22;34722;52.108;5.044;2023-04-03T03:31:48;1.60;99.90
48912;DHT22;34722;52.108;5.044;2023-04-03T03:34:14;1.60;99.90
48912;DHT22;34722;52.108;5.044;2023-04-03T03:36:40;1.70;99.90
48912;DHT22;34722;52.108;5.044;2023-04-03T03:39:06;1.60;99.90
48912;DHT22;34722;52.108;5.044;2023-04-03T03:41:32;1.60;99.90
48912;DHT22;34722;52.108;5.044;2023-04-03T03:43:57;1.60;99.90
48912;DHT22;34722;52.108;5.044;2023-04-03T03:46:23;1.60;99.90
48912;DHT22;34722;52.108;5.044;2023-04-03T03:48:49;1.50;99.90
48912;DHT22;34722;52.108;5.044;2023-04-03T03:51:15;1.50;99.90
48912;DHT22;34722;52.108;5.044;2023-04-03T04:02:14;1.50;99.90
48912;DHT22;34722;52.108;5.044;2023-04-03T04:04:40;1.50;99.90
48912;DHT22;34722;52.108;5.044;2023-04-03T04:07:06;1.50;99.90
48912;DHT22;34722;52.108;5.044;2023-04-03T04:09:31;1.50;99.90
48912;DHT22;34722;52.108;5.044;2023-04-03T04:11:57;1.50;99.90
48912;DHT22;34722;52.108;5.044;2023-04-03T04:14:23;1.60;99.90
48912;DHT22;34722;52.108;5.044;2023-04-03T04:16:49;1.50;99.90
48912;DHT22;34722;52.108;5.044;2023-04-03T04:19:14;1.50;99.90
48912;DHT22;34722;52.108;5.044;2023-04-03T04:21:40;1.50;99.90
48912;DHT22;34722;52.108;5.044;2023-04-03T04:24:07;1.50;99.90
48912;DHT22;34722;52.108;5.044;2023-04-03T04:26:34;1.50;99.90
48912;DHT22;34722;52.108;5.044;2023-04-03T04:29:00;1.50;99.90
48912;DHT22;34722;52.108;5.044;2023-04-03T04:31:26;1.50;99.90
48912;DHT22;34722;52.108;5.044;2023-04-03T04:33:52;1.50;99.90
48912;DHT22;34722;52.108;5.044;2023-04-03T04:36:18;1.60;99.90
48912;DHT22;34722;52.108;5.044;2023-04-03T04:38:44;1.50;99.90
48912;DHT22;34722;52.108;5.044;2023-04-03T04:41:10;1.50;99.90
48912;DHT22;34722;52.108;5.044;2023-04-03T04:43:36;1.50;99.90
48912;DHT22;34722;52.108;5.044;2023-04-03T04:46:04;1.50;99.90
48912;DHT22;34722;52.108;5.044;2023-04-03T04:48:30;1.50;99.90
48912;DHT22;34722;52.108;5.044;2023-04-03T04:50:56;1.50;99.90
48912;DHT22;34722;52.108;5.044;2023-04-03T04:53:21;1.50;99.90
48912;DHT22;34722;52.108;5.044;2023-04-03T04:55:47;1.50;99.90
48912;DHT22;34722;52.108;5.044;2023-04-03T04:58:13;1.60;99.90
48912;DHT22;34722;52.108;5.044;2023-04-03T05:00:39;1.60;99.90
48912;DHT22;34722;52.108;5.044;2023-04-03T05:03:05;1.70;99.90
48912;DHT22;34722;52.108;5.044;2023-04-03T05:05:31;1.70;99.90
48912;DHT22;34722;52.108;5.044;2023-04-03T05:07:57;1.70;99.90
48912;DHT22;34722;52.108;5.044;2023-04-03T05:10:23;1.70;99.90
48912;DHT22;34722;52.108;5.044;2023-04-03T05:12:49;1.80;99.90
48912;DHT22;34722;52.108;5.044;2023-04-03T05:15:14;1.70;99.90
48912;DHT22;34722;52.108;5.044;2023-04-03T05:17:55;1.80;99.90
48912;DHT22;34722;52.108;5.044;2023-04-03T05:20:21;1.80;99.90
48912;DHT22;34722;52.108;5.044;2023-04-03T05:22:47;1.80;99.90
48912;DHT22;34722;52.108;5.044;2023-04-03T05:25:12;1.80;99.90
48912;DHT22;34722;52.108;5.044;2023-04-03T05:27:38;1.80;99.90
48912;DHT22;34722;52.108;5.044;2023-04-03T05:30:04;1.70;99.90
48912;DHT22;34722;52.108;5.044;2023-04-03T05:32:30;1.80;99.90
48912;DHT22;34722;52.108;5.044;2023-04-03T05:34:56;1.70;99.90
48912;DHT22;34722;52.108;5.044;2023-04-03T05:37:21;1.70;99.90
48912;DHT22;34722;52.108;5.044;2023-04-03T05:39:47;1.80;99.90
48912;DHT22;34722;52.108;5.044;2023-04-03T05:42:13;1.80;99.90
48912;DHT22;34722;52.108;5.044;2023-04-03T05:44:39;1.80;99.90
48912;DHT22;34722;52.108;5.044;2023-04-03T05:53:02;1.80;99.90
48912;DHT22;34722;52.108;5.044;2023-04-03T05:55:29;1.90;99.90
48912;DHT22;34722;52.108;5.044;2023-04-03T05:57:54;1.90;99.90
48912;DHT22;34722;52.108;5.044;2023-04-03T06:00:20;2.00;99.90
48912;DHT22;34722;52.108;5.044;2023-04-03T06:02:46;2.10;99.90
48912;DHT22;34722;52.108;5.044;2023-04-03T06:05:12;2.30;99.90
48912;DHT22;34722;52.108;5.044;2023-04-03T06:07:38;2.50;99.90
48912;DHT22;34722;52.108;5.044;2023-04-03T06:10:04;2.80;99.90
48912;DHT22;34722;52.108;5.044;2023-04-03T06:12:30;3.20;99.90
48912;DHT22;34722;52.108;5.044;2023-04-03T06:14:56;3.40;99.90
48912;DHT22;34722;52.108;5.044;2023-04-03T06:17:22;4.10;99.90
48912;DHT22;34722;52.108;5.044;2023-04-03T06:19:49;4.80;99.90
48912;DHT22;34722;52.108;5.044;2023-04-03T06:31:32;7.70;99.90
48912;DHT22;34722;52.108;5.044;2023-04-03T06:37:22;9.00;1.00
48912;DHT22;34722;52.108;5.044;2023-04-03T06:39:49;9.60;99.90
48912;DHT22;34722;52.108;5.044;2023-04-03T06:42:14;9.60;99.90
48912;DHT22;34722;52.108;5.044;2023-04-03T06:44:40;10.20;99.90
48912;DHT22;34722;52.108;5.044;2023-04-03T06:47:06;10.90;1.00
48912;DHT22;34722;52.108;5.044;2023-04-03T06:49:31;11.00;99.90
48912;DHT22;34722;52.108;5.044;2023-04-03T06:51:58;10.70;99.90
48912;DHT22;34722;52.108;5.044;2023-04-03T06:54:23;11.00;1.00
48912;DHT22;34722;52.108;5.044;2023-04-03T06:56:50;11.70;1.00
48912;DHT22;34722;52.108;5.044;2023-04-03T06:59:16;12.80;99.90
48912;DHT22;34722;52.108;5.044;2023-04-03T07:01:42;12.50;99.90
48912;DHT22;34722;52.108;5.044;2023-04-03T07:04:08;13.10;99.90
48912;DHT22;34722;52.108;5.044;2023-04-03T07:06:34;13.60;55.60
48912;DHT22;34722;52.108;5.044;2023-04-03T07:11:35;13.50;1.00
48912;DHT22;34722;52.108;5.044;2023-04-03T07:14:02;13.50;1.00
48912;DHT22;34722;52.108;5.044;2023-04-03T07:16:28;13.10;1.00
48912;DHT22;34722;52.108;5.044;2023-04-03T07:19:05;13.50;1.00
48912;DHT22;34722;52.108;5.044;2023-04-03T07:24:53;12.90;1.00
48912;DHT22;34722;52.108;5.044;2023-04-03T07:27:19;11.70;1.00
48912;DHT22;34722;52.108;5.044;2023-04-03T07:29:45;11.80;1.00
48912;DHT22;34722;52.108;5.044;2023-04-03T07:32:10;12.10;1.00
48912;DHT22;34722;52.108;5.044;2023-04-03T07:34:36;12.60;1.00
48912;DHT22;34722;52.108;5.044;2023-04-03T07:37:03;12.90;1.00
48912;DHT22;34722;52.108;5.044;2023-04-03T07:39:29;13.50;99.90
48912;DHT22;34722;52.108;5.044;2023-04-03T07:41:55;13.90;99.90
48912;DHT22;34722;52.108;5.044;2023-04-03T07:44:23;14.00;99.90
48912;DHT22;34722;52.108;5.044;2023-04-03T07:46:52;13.70;99.90
48912;DHT22;34722;52.108;5.044;2023-04-03T07:49:18;14.30;99.90
48912;DHT22;34722;52.108;5.044;2023-04-03T07:51:44;13.80;99.90
48912;DHT22;34722;52.108;5.044;2023-04-03T07:54:10;14.40;99.90
48912;DHT22;34722;52.108;5.044;2023-04-03T07:56:36;15.30;99.90
48912;DHT22;34722;52.108;5.044;2023-04-03T07:59:01;15.50;99.90
48912;DHT22;34722;52.108;5.044;2023-04-03T08:01:27;15.40;99.90
48912;DHT22;34722;52.108;5.044;2023-04-03T08:04:25;16.00;99.90
48912;DHT22;34722;52.108;5.044;2023-04-03T08:06:51;16.30;99.90
48912;DHT22;34722;52.108;5.044;2023-04-03T08:09:17;17.50;99.90
48912;DHT22;34722;52.108;5.044;2023-04-03T08:11:44;16.10;99.90
48912;DHT22;34722;52.108;5.044;2023-04-03T08:14:10;15.50;99.90
48912;DHT22;34722;52.108;5.044;2023-04-03T08:16:41;15.40;99.90
48912;DHT22;34722;52.108;5.044;2023-04-03T08:19:07;15.40;99.90
48912;DHT22;34722;52.108;5.044;2023-04-03T08:25:09;15.10;99.90
48912;DHT22;34722;52.108;5.044;2023-04-03T08:28:03;15.50;99.90
48912;DHT22;34722;52.108;5.044;2023-04-03T08:30:29;15.50;99.90
48912;DHT22;34722;52.108;5.044;2023-04-03T08:33:23;15.70;99.90
48912;DHT22;34722;52.108;5.044;2023-04-03T08:35:48;14.40;99.90
48912;DHT22;34722;52.108;5.044;2023-04-03T08:50:25;18.30;99.90
48912;DHT22;34722;52.108;5.044;2023-04-03T08:52:55;16.00;99.90
48912;DHT22;34722;52.108;5.044;2023-04-03T08:58:26;15.10;99.90
48912;DHT22;34722;52.108;5.044;2023-04-03T09:12:39;14.70;99.90
48912;DHT22;34722;52.108;5.044;2023-04-03T09:15:31;14.10;95.20
48912;DHT22;34722;52.108;5.044;2023-04-03T09:18:04;14.80;99.90
48912;DHT22;34722;52.108;5.044;2023-04-03T09:23:19;14.50;90.40
48912;DHT22;34722;52.108;5.044;2023-04-03T09:25:46;13.70;71.20
48912;DHT22;34722;52.108;5.044;2023-04-03T09:28:12;13.20;51.30
48912;DHT22;34722;52.108;5.044;2023-04-03T09:30:37;13.00;41.40
48912;DHT22;34722;52.108;5.044;2023-04-03T09:33:04;13.40;48.10
48912;DHT22;34722;52.108;5.044;2023-04-03T09:35:32;13.20;55.50
48912;DHT22;34722;52.108;5.044;2023-04-03T09:40:45;14.80;57.30
48912;DHT22;34722;52.108;5.044;2023-04-03T09:43:30;15.40;68.80
48912;DHT22;34722;52.108;5.044;2023-04-03T09:48:55;13.50;29.30
48912;DHT22;34722;52.108;5.044;2023-04-03T09:51:28;13.30;19.40
48912;DHT22;34722;52.108;5.044;2023-04-03T09:54:33;12.90;18.10
48912;DHT22;34722;52.108;5.044;2023-04-03T09:57:13;13.20;18.40
48912;DHT22;34722;52.108;5.044;2023-04-03T09:59:56;13.30;13.20
48912;DHT22;34722;52.108;5.044;2023-04-03T10:02:32;13.50;17.10
48912;DHT22;34722;52.108;5.044;2023-04-03T10:04:59;13.20;12.70
48912;DHT22;34722;52.108;5.044;2023-04-03T10:07:34;13.50;10.40
48912;DHT22;34722;52.108;5.044;2023-04-03T10:10:21;13.30;10.20
48912;DHT22;34722;52.108;5.044;2023-04-03T10:13:01;14.50;20.80
48912;DHT22;34722;52.108;5.044;2023-04-03T10:21:59;15.00;27.90
48912;DHT22;34722;52.108;5.044;2023-04-03T10:27:26;15.30;16.00
48912;DHT22;34722;52.108;5.044;2023-04-03T10:29:55;15.40;15.90
48912;DHT22;34722;52.108;5.044;2023-04-03T10:53:39;13.90;1.00
48912;DHT22;34722;52.108;5.044;2023-04-03T10:56:22;14.50;1.00
48912;DHT22;34722;52.108;5.044;2023-04-03T11:02:28;15.60;1.00
48912;DHT22;34722;52.108;5.044;2023-04-03T11:05:04;16.40;1.00
48912;DHT22;34722;52.108;5.044;2023-04-03T11:24:03;17.40;1.00
48912;DHT22;34722;52.108;5.044;2023-04-03T11:26:36;16.80;1.00
48912;DHT22;34722;52.108;5.044;2023-04-03T11:29:11;16.90;1.00
48912;DHT22;34722;52.108;5.044;2023-04-03T11:34:23;18.30;1.00
48912;DHT22;34722;52.108;5.044;2023-04-03T11:36:53;17.70;1.00
48912;DHT22;34722;52.108;5.044;2023-04-03T11:39:27;18.70;1.00
48912;DHT22;34722;52.108;5.044;2023-04-03T11:41:53;17.10;1.00
48912;DHT22;34722;52.108;5.044;2023-04-03T11:44:32;17.60;1.00
48912;DHT22;34722;52.108;5.044;2023-04-03T11:47:00;18.10;1.00
48912;DHT22;34722;52.108;5.044;2023-04-03T11:49:51;17.30;1.00
48912;DHT22;34722;52.108;5.044;2023-04-03T12:35:19;17.10;1.00
48912;DHT22;34722;52.108;5.044;2023-04-03T12:41:57;15.30;1.00
48912;DHT22;34722;52.108;5.044;2023-04-03T12:44:37;14.40;1.00
48912;DHT22;34722;52.108;5.044;2023-04-03T12:47:34;13.70;1.00
48912;DHT22;34722;52.108;5.044;2023-04-03T12:50:13;12.70;1.00
48912;DHT22;34722;52.108;5.044;2023-04-03T12:52:50;12.40;1.00
48912;DHT22;34722;52.108;5.044;2023-04-03T12:55:19;12.60;1.00
48912;DHT22;34722;52.108;5.044;2023-04-03T12:57:45;12.10;1.00
48912;DHT22;34722;52.108;5.044;2023-04-03T13:00:33;12.00;1.00
48912;DHT22;34722;52.108;5.044;2023-04-03T13:12:07;11.60;1.00
48912;DHT22;34722;52.108;5.044;2023-04-03T13:24:22;11.30;1.00
48912;DHT22;34722;52.108;5.044;2023-04-03T13:34:06;11.40;1.00
48912;DHT22;34722;52.108;5.044;2023-04-03T13:39:41;11.20;1.00
48912;DHT22;34722;52.108;5.044;2023-04-03T13:42:31;11.30;1.00
48912;DHT22;34722;52.108;5.044;2023-04-03T13:47:46;11.30;1.00
48912;DHT22;34722;52.108;5.044;2023-04-03T13:50:14;11.30;1.00
48912;DHT22;34722;52.108;5.044;2023-04-03T13:52:53;11.40;1.00
48912;DHT22;34722;52.108;5.044;2023-04-03T13:55:34;11.70;1.00
48912;DHT22;34722;52.108;5.044;2023-04-03T14:06:06;11.60;1.00
48912;DHT22;34722;52.108;5.044;2023-04-03T14:08:33;11.60;1.00
48912;DHT22;34722;52.108;5.044;2023-04-03T14:11:00;11.70;1.00
48912;DHT22;34722;52.108;5.044;2023-04-03T14:13:26;11.70;1.00
48912;DHT22;34722;52.108;5.044;2023-04-03T14:15:52;11.70;1.00
48912;DHT22;34722;52.108;5.044;2023-04-03T14:18:19;11.70;1.00
48912;DHT22;34722;52.108;5.044;2023-04-03T14:20:46;11.30;1.00
48912;DHT22;34722;52.108;5.044;2023-04-03T14:23:12;11.30;1.00
48912;DHT22;34722;52.108;5.044;2023-04-03T14:25:39;11.00;1.00
48912;DHT22;34722;52.108;5.044;2023-04-03T14:28:22;11.00;1.00
48912;DHT22;34722;52.108;5.044;2023-04-03T14:30:49;11.10;1.00
48912;DHT22;34722;52.108;5.044;2023-04-03T14:33:18;11.20;1.00
48912;DHT22;34722;52.108;5.044;2023-04-03T14:35:44;11.10;1.00
48912;DHT22;34722;52.108;5.044;2023-04-03T14:38:26;11.10;1.00
48912;DHT22;34722;52.108;5.044;2023-04-03T14:40:52;11.10;1.00
48912;DHT22;34722;52.108;5.044;2023-04-03T14:43:19;10.70;1.00
48912;DHT22;34722;52.108;5.044;2023-04-03T14:45:46;10.80;1.00
48912;DHT22;34722;52.108;5.044;2023-04-03T14:48:24;11.10;1.00
48912;DHT22;34722;52.108;5.044;2023-04-03T14:50:52;11.00;1.00
48912;DHT22;34722;52.108;5.044;2023-04-03T14:53:18;11.10;1.00
48912;DHT22;34722;52.108;5.044;2023-04-03T14:55:51;11.10;1.00
48912;DHT22;34722;52.108;5.044;2023-04-03T14:58:19;11.10;1.00
48912;DHT22;34722;52.108;5.044;2023-04-03T15:00:45;11.30;1.00
48912;DHT22;34722;52.108;5.044;2023-04-03T15:03:20;11.10;1.00
48912;DHT22;34722;52.108;5.044;2023-04-03T15:05:48;10.90;1.00
48912;DHT22;34722;52.108;5.044;2023-04-03T15:08:25;11.00;1.00
48912;DHT22;34722;52.108;5.044;2023-04-03T15:10:55;11.00;1.00
48912;DHT22;34722;52.108;5.044;2023-04-03T17:10:45;9.10;1.00
48912;DHT22;34722;52.108;5.044;2023-04-03T17:13:11;9.00;1.00
48912;DHT22;34722;52.108;5.044;2023-04-03T17:15:36;9.00;1.00
48912;DHT22;34722;52.108;5.044;2023-04-03T17:18:05;8.90;1.00
48912;DHT22;34722;52.108;5.044;2023-04-03T17:20:30;8.90;1.00
48912;DHT22;34722;52.108;5.044;2023-04-03T17:22:59;8.90;1.00
48912;DHT22;34722;52.108;5.044;2023-04-03T17:25:43;8.80;1.00
48912;DHT22;34722;52.108;5.044;2023-04-03T17:28:11;8.70;1.00
48912;DHT22;34722;52.108;5.044;2023-04-03T17:30:37;8.60;1.00
48912;DHT22;34722;52.108;5.044;2023-04-03T17:33:03;8.50;1.00
48912;DHT22;34722;52.108;5.044;2023-04-03T17:35:29;8.50;1.00
48912;DHT22;34722;52.108;5.044;2023-04-03T17:37:58;8.40;1.00
48912;DHT22;34722;52.108;5.044;2023-04-03T17:40:24;8.40;1.00
48912;DHT22;34722;52.108;5.044;2023-04-03T17:42:50;8.30;1.00
48912;DHT22;34722;52.108;5.044;2023-04-03T17:45:16;8.20;1.00
48912;DHT22;34722;52.108;5.044;2023-04-03T17:47:42;8.10;1.00
48912;DHT22;34722;52.108;5.044;2023-04-03T17:50:14;8.10;1.00
48912;DHT22;34722;52.108;5.044;2023-04-03T17:52:40;8.00;1.00
48912;DHT22;34722;52.108;5.044;2023-04-03T17:55:06;8.00;1.00
48912;DHT22;34722;52.108;5.044;2023-04-03T17:57:32;8.00;1.00
48912;DHT22;34722;52.108;5.044;2023-04-03T17:59:58;7.90;1.00
48912;DHT22;34722;52.108;5.044;2023-04-03T18:02:23;7.80;1.00
48912;DHT22;34722;52.108;5.044;2023-04-03T18:04:52;7.80;1.00
48912;DHT22;34722;52.108;5.044;2023-04-03T18:07:21;7.70;1.00
48912;DHT22;34722;52.108;5.044;2023-04-03T18:09:47;7.60;1.00
48912;DHT22;34722;52.108;5.044;2023-04-03T18:12:13;7.60;1.00
48912;DHT22;34722;52.108;5.044;2023-04-03T18:14:40;7.60;1.00
48912;DHT22;34722;52.108;5.044;2023-04-03T18:17:06;7.50;1.00
48912;DHT22;34722;52.108;5.044;2023-04-03T18:19:32;7.50;1.00
48912;DHT22;34722;52.108;5.044;2023-04-03T18:22:23;7.50;1.00
48912;DHT22;34722;52.108;5.044;2023-04-03T18:24:50;7.40;1.00
48912;DHT22;34722;52.108;5.044;2023-04-03T18:27:21;7.30;1.00
48912;DHT22;34722;52.108;5.044;2023-04-03T18:30:00;7.30;1.00
48912;DHT22;34722;52.108;5.044;2023-04-03T18:32:54;7.30;1.00
48912;DHT22;34722;52.108;5.044;2023-04-03T18:35:48;7.20;1.00
48912;DHT22;34722;52.108;5.044;2023-04-03T18:38:14;7.10;1.00
48912;DHT22;34722;52.108;5.044;2023-04-03T18:40:40;7.10;1.00
48912;DHT22;34722;52.108;5.044;2023-04-03T18:43:07;7.00;1.00
48912;DHT22;34722;52.108;5.044;2023-04-03T18:45:33;7.10;1.00
48912;DHT22;34722;52.108;5.044;2023-04-03T18:47:58;7.00;1.00
48912;DHT22;34722;52.108;5.044;2023-04-03T18:50:24;6.90;1.00
48912;DHT22;34722;52.108;5.044;2023-04-03T18:52:50;6.90;1.00
48912;DHT22;34722;52.108;5.044;2023-04-03T18:55:17;6.80;2.80
48912;DHT22;34722;52.108;5.044;2023-04-03T18:58:03;6.80;6.60
48912;DHT22;34722;52.108;5.044;2023-04-03T19:00:29;6.80;9.30
48912;DHT22;34722;52.108;5.044;2023-04-03T19:02:55;6.70;17.20
48912;DHT22;34722;52.108;5.044;2023-04-03T19:05:20;6.60;20.00
48912;DHT22;34722;52.108;5.044;2023-04-03T19:07:47;6.60;32.40
48912;DHT22;34722;52.108;5.044;2023-04-03T19:10:15;6.50;49.40
48912;DHT22;34722;52.108;5.044;2023-04-03T19:12:45;6.50;58.60
48912;DHT22;34722;52.108;5.044;2023-04-03T19:15:12;6.40;78.00
48912;DHT22;34722;52.108;5.044;2023-04-03T19:17:38;6.40;92.50
48912;DHT22;34722;52.108;5.044;2023-04-03T19:20:05;6.30;99.90
48912;DHT22;34722;52.108;5.044;2023-04-03T19:22:31;6.30;99.90
48912;DHT22;34722;52.108;5.044;2023-04-03T19:25:04;6.20;99.90
48912;DHT22;34722;52.108;5.044;2023-04-03T19:27:59;6.10;99.90
48912;DHT22;34722;52.108;5.044;2023-04-03T19:30:25;6.10;99.90
48912;DHT22;34722;52.108;5.044;2023-04-03T19:32:51;6.00;99.90
48912;DHT22;34722;52.108;5.044;2023-04-03T19:35:16;6.00;99.90
48912;DHT22;34722;52.108;5.044;2023-04-03T19:37:42;6.00;99.90
48912;DHT22;34722;52.108;5.044;2023-04-03T19:40:08;6.00;99.90
48912;DHT22;34722;52.108;5.044;2023-04-03T19:42:34;5.90;99.90
48912;DHT22;34722;52.108;5.044;2023-04-03T19:45:05;6.00;99.90
48912;DHT22;34722;52.108;5.044;2023-04-03T19:47:32;6.00;99.90
48912;DHT22;34722;52.108;5.044;2023-04-03T19:49:59;5.90;99.90
48912;DHT22;34722;52.108;5.044;2023-04-03T19:52:25;5.90;99.90
48912;DHT22;34722;52.108;5.044;2023-04-03T19:54:50;5.80;99.90
48912;DHT22;34722;52.108;5.044;2023-04-03T19:57:16;5.80;99.90
48912;DHT22;34722;52.108;5.044;2023-04-03T19:59:42;5.80;99.90
48912;DHT22;34722;52.108;5.044;2023-04-03T20:02:08;5.80;99.90
48912;DHT22;34722;52.108;5.044;2023-04-03T20:04:34;5.80;99.90
48912;DHT22;34722;52.108;5.044;2023-04-03T20:06:59;5.70;99.90
48912;DHT22;34722;52.108;5.044;2023-04-03T20:09:26;5.70;99.90
48912;DHT22;34722;52.108;5.044;2023-04-03T20:11:52;5.60;99.90
48912;DHT22;34722;52.108;5.044;2023-04-03T20:14:18;5.70;99.90
48912;DHT22;34722;52.108;5.044;2023-04-03T20:16:44;5.60;99.90
48912;DHT22;34722;52.108;5.044;2023-04-03T20:19:12;5.60;99.90
48912;DHT22;34722;52.108;5.044;2023-04-03T20:21:38;5.60;99.90
48912;DHT22;34722;52.108;5.044;2023-04-03T20:24:06;5.60;99.90
48912;DHT22;34722;52.108;5.044;2023-04-03T20:26:33;5.60;99.90
48912;DHT22;34722;52.108;5.044;2023-04-03T20:29:01;5.60;99.90
48912;DHT22;34722;52.108;5.044;2023-04-03T20:31:28;5.50;99.90
48912;DHT22;34722;52.108;5.044;2023-04-03T20:33:54;5.50;99.90
48912;DHT22;34722;52.108;5.044;2023-04-03T20:36:21;5.50;99.90
48912;DHT22;34722;52.108;5.044;2023-04-03T20:38:48;5.40;99.90
48912;DHT22;34722;52.108;5.044;2023-04-03T20:41:14;5.30;99.90
48912;DHT22;34722;52.108;5.044;2023-04-03T20:43:41;5.20;99.90
48912;DHT22;34722;52.108;5.044;2023-04-03T20:46:08;5.20;99.90
48912;DHT22;34722;52.108;5.044;2023-04-03T20:48:35;5.10;99.90
48912;DHT22;34722;52.108;5.044;2023-04-03T20:51:11;5.00;99.90
48912;DHT22;34722;52.108;5.044;2023-04-03T20:53:38;5.00;1.00
48912;DHT22;34722;52.108;5.044;2023-04-03T20:56:13;4.80;1.00
48912;DHT22;34722;52.108;5.044;2023-04-03T20:58:40;4.90;1.00
48912;DHT22;34722;52.108;5.044;2023-04-03T21:01:21;4.70;1.00
48912;DHT22;34722;52.108;5.044;2023-04-03T21:03:49;4.80;1.00
48912;DHT22;34722;52.108;5.044;2023-04-03T21:20:41;4.40;97.00
48912;DHT22;34722;52.108;5.044;2023-04-03T21:23:07;4.30;99.90
48912;DHT22;34722;52.108;5.044;2023-04-03T21:25:33;4.30;99.90
48912;DHT22;34722;52.108;5.044;2023-04-03T21:27:58;4.20;99.90
48912;DHT22;34722;52.108;5.044;2023-04-03T21:33:00;4.20;1.00
48912;DHT22;34722;52.108;5.044;2023-04-03T21:35:25;4.10;1.00
48912;DHT22;34722;52.108;5.044;2023-04-03T21:37:51;4.10;1.00
48912;DHT22;34722;52.108;5.044;2023-04-03T21:40:17;4.00;1.00
48912;DHT22;34722;52.108;5.044;2023-04-03T21:42:43;4.00;1.00
48912;DHT22;34722;52.108;5.044;2023-04-03T21:45:09;4.00;1.00
48912;DHT22;34722;52.108;5.044;2023-04-03T21:47:34;4.00;1.00
48912;DHT22;34722;52.108;5.044;2023-04-03T21:50:01;3.90;1.00
48912;DHT22;34722;52.108;5.044;2023-04-03T21:52:26;3.90;1.00
48912;DHT22;34722;52.108;5.044;2023-04-03T21:54:52;3.90;1.00
48912;DHT22;34722;52.108;5.044;2023-04-03T21:57:21;3.80;1.00
48912;DHT22;34722;52.108;5.044;2023-04-03T22:00:04;3.70;1.00
48912;DHT22;34722;52.108;5.044;2023-04-03T22:02:38;3.60;1.00
48912;DHT22;34722;52.108;5.044;2023-04-03T22:05:08;3.60;66.20
48912;DHT22;34722;52.108;5.044;2023-04-03T22:07:34;3.50;99.90
48912;DHT22;34722;52.108;5.044;2023-04-03T22:10:00;3.50;99.90
48912;DHT22;34722;52.108;5.044;2023-04-03T22:12:28;3.50;99.90
48912;DHT22;34722;52.108;5.044;2023-04-03T22:14:55;3.50;99.90
48912;DHT22;34722;52.108;5.044;2023-04-03T22:17:24;3.40;99.90
48912;DHT22;34722;52.108;5.044;2023-04-03T22:19:50;3.40;99.90
48912;DHT22;34722;52.108;5.044;2023-04-03T22:22:15;3.40;1.00
48912;DHT22;34722;52.108;5.044;2023-04-03T22:24:41;3.30;1.00
48912;DHT22;34722;52.108;5.044;2023-04-03T22:27:07;3.30;1.00
48912;DHT22;34722;52.108;5.044;2023-04-03T22:29:33;3.20;1.00
48912;DHT22;34722;52.108;5.044;2023-04-03T22:31:58;3.10;99.90
48912;DHT22;34722;52.108;5.044;2023-04-03T22:34:24;3.00;1.00
48912;DHT22;34722;52.108;5.044;2023-04-03T22:36:50;3.00;1.00
48912;DHT22;34722;52.108;5.044;2023-04-03T22:39:15;3.00;99.90
48912;DHT22;34722;52.108;5.044;2023-04-03T22:41:41;2.90;1.00
48912;DHT22;34722;52.108;5.044;2023-04-03T22:44:10;3.00;99.90
48912;DHT22;34722;52.108;5.044;2023-04-03T22:46:35;3.00;99.90
48912;DHT22;34722;52.108;5.044;2023-04-03T22:49:01;3.00;99.90
48912;DHT22;34722;52.108;5.044;2023-04-03T22:51:27;3.00;99.90
48912;DHT22;34722;52.108;5.044;2023-04-03T22:53:52;3.00;99.90
48912;DHT22;34722;52.108;5.044;2023-04-03T22:56:18;3.00;99.90
48912;DHT22;34722;52.108;5.044;2023-04-03T22:58:43;2.90;99.90
48912;DHT22;34722;52.108;5.044;2023-04-03T23:01:12;3.00;99.90
48912;DHT22;34722;52.108;5.044;2023-04-03T23:03:40;2.90;99.90
48912;DHT22;34722;52.108;5.044;2023-04-03T23:06:08;3.00;99.90
48912;DHT22;34722;52.108;5.044;2023-04-03T23:08:34;3.00;99.90
48912;DHT22;34722;52.108;5.044;2023-04-03T23:11:03;3.00;99.90
48912;DHT22;34722;52.108;5.044;2023-04-03T23:13:29;3.00;99.90
48912;DHT22;34722;52.108;5.044;2023-04-03T23:15:56;2.90;1.00
48912;DHT22;34722;52.108;5.044;2023-04-03T23:18:22;2.90;1.00